Time;durP1;ratioP1;P1;durP2;ratioP2;P2;SDS_P1;SDS_P2;PMS_P1;PMS_P2;Temp;Humidity;BMP_temperature;BMP_pressure;BME280_temperature;BME280_humidity;BME280_pressure;Samples;Min_cycle;Max_cycle;Signal;HPM_P1;HPM_P2
2023/01/19 00:00:23;;;;;;;23.63;14.60;;;2.20;99.90;;;;;;5060108;28;20967;-55
2023/01/19 00:02:49;;;;;;;23.48;15.00;;;2.10;99.90;;;;;;5060294;28;20040;-56
2023/01/19 00:05:15;;;;;;;22.65;14.30;;;2.00;99.90;;;;;;5060037;28;20040;-55
2023/01/19 00:07:41;;;;;;;23.73;14.38;;;1.90;99.90;;;;;;5049954;28;20036;-55
2023/01/19 00:10:08;;;;;;;25.15;14.20;;;1.90;99.90;;;;;;5048130;28;20090;-55
2023/01/19 00:12:33;;;;;;;26.05;14.73;;;1.80;99.90;;;;;;5048811;28;20046;-53
2023/01/19 00:14:59;;;;;;;26.17;14.63;;;1.70;99.90;;;;;;5052550;28;20037;-57
2023/01/19 00:17:24;;;;;;;20.73;14.75;;;1.90;99.90;;;;;;5051997;28;20040;-56
2023/01/19 00:19:50;;;;;;;22.05;13.45;;;2.20;99.90;;;;;;5058356;28;20047;-55
2023/01/19 00:22:16;;;;;;;21.95;14.27;;;2.10;99.90;;;;;;5060599;28;20407;-54
2023/01/19 00:24:41;;;;;;;26.58;15.50;;;2.20;99.90;;;;;;5059486;28;20047;-55
2023/01/19 00:27:07;;;;;;;22.58;15.07;;;2.20;99.90;;;;;;5056151;28;20040;-56
2023/01/19 00:29:33;;;;;;;20.98;14.10;;;2.30;99.90;;;;;;5063571;28;20618;-56
2023/01/19 00:32:04;;;;;;;21.05;14.95;;;2.10;99.90;;;;;;5067005;28;20119;-56
2023/01/19 00:34:35;;;;;;;24.98;15.32;;;2.20;99.90;;;;;;5069258;28;20040;-55
2023/01/19 00:37:02;;;;;;;23.08;14.63;;;2.10;99.90;;;;;;5062342;28;20556;-54
2023/01/19 00:39:28;;;;;;;21.60;14.63;;;2.10;99.90;;;;;;5061394;28;20117;-53
2023/01/19 00:44:38;;;;;;;23.10;14.25;;;2.00;99.90;;;;;;5069384;28;20044;-56
2023/01/19 00:47:04;;;;;;;19.92;14.35;;;2.10;99.90;;;;;;5058306;28;20492;-54
2023/01/19 00:49:30;;;;;;;19.52;13.68;;;2.00;99.90;;;;;;5062552;28;20039;-58
2023/01/19 00:51:56;;;;;;;23.35;14.20;;;2.10;99.90;;;;;;5066206;28;20040;-56
2023/01/19 00:54:21;;;;;;;20.88;13.68;;;2.20;99.90;;;;;;5060328;28;20571;-55
2023/01/19 00:56:47;;;;;;;21.65;14.13;;;2.00;99.90;;;;;;5068840;28;20039;-57
2023/01/19 00:59:13;;;;;;;22.30;14.35;;;2.20;99.90;;;;;;5065428;28;20060;-53
2023/01/19 01:01:38;;;;;;;20.83;13.60;;;2.10;99.90;;;;;;5061080;28;20727;-56
2023/01/19 01:04:04;;;;;;;20.25;13.70;;;2.20;99.90;;;;;;5056681;28;20041;-55
2023/01/19 01:06:29;;;;;;;20.55;14.07;;;2.00;99.90;;;;;;5049489;28;20033;-54
2023/01/19 01:08:55;;;;;;;22.30;14.30;;;2.00;99.90;;;;;;5052026;28;20040;-56
2023/01/19 01:11:20;;;;;;;22.33;14.98;;;2.10;99.90;;;;;;5053529;28;21272;-55
2023/01/19 01:13:46;;;;;;;22.17;14.50;;;2.00;99.90;;;;;;5055235;28;20028;-56
2023/01/19 01:16:15;;;;;;;25.88;14.52;;;2.00;99.90;;;;;;5059915;28;20213;-53
2023/01/19 01:18:41;;;;;;;23.10;14.55;;;2.00;99.90;;;;;;5052971;28;20067;-55
2023/01/19 01:21:06;;;;;;;22.95;14.10;;;2.00;99.90;;;;;;5052889;28;20048;-55
2023/01/19 01:23:34;;;;;;;24.30;15.68;;;2.30;99.90;;;;;;5055530;28;20040;-54
2023/01/19 01:25:59;;;;;;;23.42;15.27;;;2.20;99.90;;;;;;5059232;28;20032;-55
2023/01/19 01:28:25;;;;;;;23.27;14.38;;;2.30;99.90;;;;;;5059411;28;20079;-55
2023/01/19 01:30:57;;;;;;;23.45;16.05;;;2.40;99.90;;;;;;5058260;28;20346;-55
2023/01/19 01:33:23;;;;;;;23.20;15.18;;;2.40;99.90;;;;;;5051121;28;20036;-54
2023/01/19 01:35:49;;;;;;;24.75;15.38;;;2.40;99.90;;;;;;5045433;28;21498;-55
2023/01/19 01:38:15;;;;;;;22.13;14.77;;;2.30;99.90;;;;;;5055947;28;20029;-55
2023/01/19 01:40:41;;;;;;;24.98;15.77;;;2.30;99.90;;;;;;5054577;28;20036;-55
2023/01/19 01:43:14;;;;;;;23.60;14.55;;;2.40;99.90;;;;;;5056965;28;20760;-54
2023/01/19 01:45:41;;;;;;;29.02;15.55;;;2.30;99.90;;;;;;5058535;28;20472;-54
2023/01/19 01:48:17;;;;;;;23.83;15.70;;;2.40;99.90;;;;;;5044079;28;20037;-56
2023/01/19 01:53:35;;;;;;;23.67;15.45;;;2.40;99.90;;;;;;5054068;28;20558;-54
2023/01/19 01:56:04;;;;;;;25.38;15.82;;;2.30;99.90;;;;;;5057684;28;20551;-56
2023/01/19 01:58:31;;;;;;;23.35;14.40;;;2.30;99.90;;;;;;5055764;28;20037;-56
2023/01/19 02:03:41;;;;;;;23.55;15.45;;;2.50;99.90;;;;;;5053632;28;20039;-54
2023/01/19 02:06:08;;;;;;;24.48;15.05;;;2.40;99.90;;;;;;5060358;28;20025;-55
2023/01/19 02:14:14;;;;;;;23.00;13.98;;;2.30;99.90;;;;;;5050764;28;20035;-55
2023/01/19 02:16:40;;;;;;;19.65;13.57;;;2.20;99.90;;;;;;5056722;28;20033;-55
2023/01/19 02:19:11;;;;;;;21.98;13.90;;;2.10;99.90;;;;;;5057977;28;20044;-55
2023/01/19 02:21:58;;;;;;;21.90;14.73;;;2.10;99.90;;;;;;5060689;28;20209;-55
2023/01/19 02:24:24;;;;;;;21.50;13.52;;;2.20;99.90;;;;;;5056626;28;20048;-55
2023/01/19 02:26:50;;;;;;;23.10;15.25;;;2.20;99.90;;;;;;5062381;28;20064;-55
2023/01/19 02:29:21;;;;;;;23.10;14.32;;;2.20;99.90;;;;;;5052887;28;20036;-56
2023/01/19 02:31:46;;;;;;;24.90;14.30;;;2.10;99.90;;;;;;5055262;28;20598;-54
2023/01/19 02:34:15;;;;;;;22.25;14.98;;;2.10;99.90;;;;;;5056423;28;20063;-55
2023/01/19 02:36:51;;;;;;;22.50;14.65;;;2.20;99.90;;;;;;5055009;28;20523;-56
2023/01/19 02:39:21;;;;;;;24.15;15.00;;;2.20;99.90;;;;;;5061846;28;20111;-56
2023/01/19 02:41:57;;;;;;;20.95;13.88;;;2.20;99.90;;;;;;5062042;28;20033;-55
2023/01/19 02:44:25;;;;;;;22.83;14.27;;;2.20;99.90;;;;;;5056368;28;20059;-55
2023/01/19 02:46:53;;;;;;;23.42;14.88;;;2.20;99.90;;;;;;5056239;28;20024;-54
2023/01/19 02:49:18;;;;;;;21.33;15.10;;;2.20;99.90;;;;;;5048828;28;20040;-54
2023/01/19 02:51:44;;;;;;;21.95;14.50;;;2.30;99.90;;;;;;5056467;28;20648;-56
2023/01/19 02:54:32;;;;;;;20.67;14.50;;;2.40;99.90;;;;;;5062044;28;20791;-54
2023/01/19 02:57:10;;;;;;;22.67;14.20;;;2.30;99.90;;;;;;5056446;28;20040;-53
2023/01/19 02:59:51;;;;;;;22.13;13.88;;;2.40;99.90;;;;;;5050098;28;20056;-55
2023/01/19 03:02:25;;;;;;;22.52;14.40;;;2.50;99.90;;;;;;5061452;28;20391;-54
2023/01/19 03:05:05;;;;;;;22.77;14.05;;;2.60;99.90;;;;;;5051830;28;20120;-56
2023/01/19 03:07:34;;;;;;;22.30;14.48;;;2.60;99.90;;;;;;5062368;28;20059;-55
2023/01/19 03:10:10;;;;;;;23.98;13.25;;;2.70;99.90;;;;;;5050983;28;20036;-55
2023/01/19 03:12:43;;;;;;;21.10;13.10;;;2.60;99.90;;;;;;5059431;28;20622;-56
2023/01/19 03:15:19;;;;;;;21.63;13.63;;;2.70;99.90;;;;;;5061068;28;20043;-56
2023/01/19 03:17:48;;;;;;;20.00;12.88;;;2.60;99.90;;;;;;5057906;28;20043;-56
2023/01/19 03:20:17;;;;;;;25.15;13.77;;;2.60;99.90;;;;;;5056890;28;20043;-55
2023/01/19 03:22:44;;;;;;;20.00;12.85;;;2.70;99.90;;;;;;5060778;28;20534;-56
2023/01/19 03:25:11;;;;;;;23.35;13.43;;;2.70;99.90;;;;;;5061499;28;20036;-54
2023/01/19 03:27:41;;;;;;;23.50;14.40;;;2.80;99.90;;;;;;5060950;28;20287;-56
2023/01/19 03:30:19;;;;;;;22.13;14.02;;;2.80;99.90;;;;;;5056291;28;20043;-53
2023/01/19 03:32:55;;;;;;;24.92;13.70;;;2.70;99.90;;;;;;5050606;28;20068;-56
2023/01/19 03:35:24;;;;;;;28.70;14.63;;;2.80;99.90;;;;;;5052978;28;20043;-55
2023/01/19 03:37:53;;;;;;;23.42;13.98;;;2.80;99.90;;;;;;5061189;28;20492;-54
2023/01/19 03:40:19;;;;;;;22.98;14.23;;;2.70;99.90;;;;;;5060367;28;20032;-54
2023/01/19 03:42:45;;;;;;;21.10;14.02;;;2.80;99.90;;;;;;5065125;28;20502;-55
2023/01/19 03:45:12;;;;;;;22.77;14.63;;;2.80;99.90;;;;;;5061117;28;20036;-54
2023/01/19 03:47:38;;;;;;;29.33;15.27;;;2.80;99.90;;;;;;5061554;28;20039;-55
2023/01/19 03:50:10;;;;;;;23.17;14.38;;;2.90;99.90;;;;;;5057883;28;20109;-54
2023/01/19 03:52:35;;;;;;;30.75;15.93;;;2.90;99.90;;;;;;5061845;28;20143;-54
2023/01/19 03:55:03;;;;;;;26.02;14.77;;;2.80;99.90;;;;;;5050612;28;20120;-53
2023/01/19 03:57:29;;;;;;;27.10;14.88;;;2.80;99.90;;;;;;5053802;28;20056;-53
2023/01/19 03:59:55;;;;;;;25.50;14.85;;;2.80;99.90;;;;;;5050958;28;21417;-53
2023/01/19 04:02:22;;;;;;;24.85;14.07;;;2.80;99.90;;;;;;5051883;28;20031;-59
2023/01/19 04:04:47;;;;;;;24.58;14.98;;;2.80;99.90;;;;;;5050311;28;20064;-58
2023/01/19 04:07:13;;;;;;;23.92;14.27;;;2.70;99.90;;;;;;5061718;28;20488;-58
2023/01/19 04:09:39;;;;;;;25.35;14.70;;;2.50;99.90;;;;;;5060166;28;20036;-56
2023/01/19 04:12:05;;;;;;;29.35;16.50;;;2.40;99.90;;;;;;5057455;28;20036;-58
2023/01/19 04:14:30;;;;;;;28.17;16.00;;;2.60;99.90;;;;;;5057122;28;20080;-57
2023/01/19 04:16:56;;;;;;;25.33;15.25;;;2.40;99.90;;;;;;5061074;28;20502;-60
2023/01/19 04:19:21;;;;;;;31.40;16.90;;;2.30;99.90;;;;;;5060031;28;20048;-58
2023/01/19 04:21:49;;;;;;;32.35;17.00;;;2.30;99.90;;;;;;5049435;28;20648;-54
2023/01/19 04:24:15;;;;;;;32.00;16.60;;;2.40;99.90;;;;;;5061718;28;20025;-54
2023/01/19 04:26:40;;;;;;;28.88;17.67;;;2.30;99.90;;;;;;5059676;28;20469;-58
2023/01/19 04:29:06;;;;;;;34.25;18.50;;;2.30;99.90;;;;;;5056129;28;20024;-56
2023/01/19 04:31:34;;;;;;;29.55;17.50;;;2.20;99.90;;;;;;5056116;28;20492;-57
2023/01/19 04:34:00;;;;;;;30.13;18.20;;;2.30;99.90;;;;;;5059993;28;20462;-59
2023/01/19 04:36:26;;;;;;;33.15;17.58;;;2.30;99.90;;;;;;5061317;28;20028;-56
2023/01/19 04:38:52;;;;;;;32.67;18.85;;;2.20;99.90;;;;;;5055323;28;20079;-56
2023/01/19 04:41:17;;;;;;;34.20;18.98;;;2.20;99.90;;;;;;5051950;28;20041;-59
2023/01/19 04:43:43;;;;;;;36.53;18.60;;;2.30;99.90;;;;;;5049572;28;20032;-58
2023/01/19 04:46:09;;;;;;;30.92;19.38;;;2.30;99.90;;;;;;5058016;28;20059;-59
2023/01/19 04:48:35;;;;;;;33.95;20.10;;;2.30;99.90;;;;;;5056182;28;20044;-58
2023/01/19 04:51:00;;;;;;;31.98;17.70;;;2.40;99.90;;;;;;5059434;28;20091;-58
2023/01/19 04:53:26;;;;;;;34.30;19.88;;;2.30;99.90;;;;;;5060573;28;20032;-57
2023/01/19 04:55:53;;;;;;;34.80;19.98;;;2.30;99.90;;;;;;5047906;28;20439;-57
2023/01/19 04:58:19;;;;;;;34.33;20.42;;;2.40;99.90;;;;;;5053154;28;20601;-56
2023/01/19 05:00:45;;;;;;;37.80;20.83;;;2.30;99.90;;;;;;5063985;28;20040;-57
2023/01/19 05:03:10;;;;;;;36.72;20.75;;;2.30;99.90;;;;;;5047520;28;20497;-57
2023/01/19 05:05:36;;;;;;;37.03;20.60;;;2.50;99.90;;;;;;5054485;28;20041;-59
2023/01/19 05:08:02;;;;;;;36.65;21.77;;;2.40;99.90;;;;;;5060326;28;20036;-57
2023/01/19 05:10:27;;;;;;;34.58;19.92;;;2.30;99.90;;;;;;5059923;28;20071;-58
2023/01/19 05:12:56;;;;;;;34.15;19.45;;;2.20;99.90;;;;;;5058322;28;20098;-57
2023/01/19 05:15:22;;;;;;;31.13;19.52;;;2.20;99.90;;;;;;5060412;28;20543;-58
2023/01/19 05:17:48;;;;;;;32.45;18.60;;;2.20;99.90;;;;;;5058286;28;20044;-59
2023/01/19 05:20:13;;;;;;;31.90;19.15;;;2.20;99.90;;;;;;5054511;28;20044;-58
2023/01/19 05:22:39;;;;;;;33.17;18.83;;;2.20;99.90;;;;;;5060081;28;20184;-59
2023/01/19 05:25:07;;;;;;;30.02;18.20;;;2.30;99.90;;;;;;5060552;28;20385;-56
2023/01/19 05:27:33;;;;;;;35.88;17.70;;;2.30;99.90;;;;;;5052420;28;20668;-59
2023/01/19 05:29:59;;;;;;;30.38;18.02;;;2.30;99.90;;;;;;5056062;28;20091;-59
2023/01/19 05:32:24;;;;;;;27.35;16.77;;;2.30;99.90;;;;;;5058413;28;20209;-58
2023/01/19 05:34:50;;;;;;;25.55;15.63;;;2.30;99.90;;;;;;5055728;28;20127;-59
2023/01/19 05:37:15;;;;;;;24.85;14.68;;;2.30;99.90;;;;;;5058964;28;20060;-59
2023/01/19 05:39:41;;;;;;;20.52;13.75;;;2.40;99.90;;;;;;5057820;28;20715;-59
2023/01/19 05:42:06;;;;;;;24.02;15.60;;;2.20;99.90;;;;;;5051922;28;20850;-57
2023/01/19 05:44:32;;;;;;;23.25;14.98;;;2.30;99.90;;;;;;5047122;28;20056;-58
2023/01/19 05:46:57;;;;;;;22.27;14.68;;;2.20;99.90;;;;;;5052323;28;20033;-59
2023/01/19 05:49:23;;;;;;;21.05;13.45;;;2.20;99.90;;;;;;5059109;28;20029;-59
2023/01/19 05:51:49;;;;;;;18.85;12.93;;;2.20;99.90;;;;;;5055098;28;20411;-59
2023/01/19 05:54:14;;;;;;;19.85;12.88;;;2.20;99.90;;;;;;5056652;28;20455;-60
2023/01/19 05:56:40;;;;;;;19.80;13.65;;;2.20;99.90;;;;;;5061263;28;20078;-57
2023/01/19 05:59:06;;;;;;;19.45;13.50;;;2.30;99.90;;;;;;5061849;28;20033;-59
2023/01/19 06:01:34;;;;;;;19.70;13.50;;;2.30;99.90;;;;;;5062566;28;20643;-60
2023/01/19 06:03:59;;;;;;;20.00;13.82;;;2.30;99.90;;;;;;5061561;28;20352;-60
2023/01/19 06:06:25;;;;;;;20.23;13.63;;;2.30;99.90;;;;;;5062900;28;20587;-58
2023/01/19 06:08:51;;;;;;;18.95;12.63;;;2.30;99.90;;;;;;5062493;28;20507;-60
2023/01/19 06:11:17;;;;;;;16.50;11.98;;;2.30;99.90;;;;;;5064001;28;20025;-59
2023/01/19 06:13:42;;;;;;;16.38;11.13;;;2.30;99.90;;;;;;5059504;28;20167;-59
2023/01/19 06:16:08;;;;;;;16.73;11.00;;;2.40;99.90;;;;;;5052992;28;20032;-60
2023/01/19 06:18:34;;;;;;;15.23;11.05;;;2.40;99.90;;;;;;5055911;28;20136;-61
2023/01/19 06:21:04;;;;;;;15.35;9.95;;;2.40;99.90;;;;;;5059192;28;20126;-61
2023/01/19 06:23:32;;;;;;;14.43;9.95;;;2.50;99.90;;;;;;5061143;28;20044;-61
2023/01/19 06:25:57;;;;;;;13.85;9.55;;;2.40;99.90;;;;;;5060892;28;20056;-61
2023/01/19 06:28:24;;;;;;;13.88;10.15;;;2.40;99.90;;;;;;5058667;28;20035;-59
2023/01/19 06:30:50;;;;;;;13.35;9.20;;;2.30;99.90;;;;;;5061518;28;20123;-60
2023/01/19 06:33:17;;;;;;;13.65;10.02;;;2.40;99.90;;;;;;5060453;28;20035;-60
2023/01/19 06:35:47;;;;;;;14.73;10.10;;;2.40;99.90;;;;;;5047950;28;20043;-61
2023/01/19 06:38:13;;;;;;;14.85;11.23;;;2.40;99.90;;;;;;5052898;28;20079;-61
2023/01/19 06:40:42;;;;;;;16.95;11.65;;;2.40;99.90;;;;;;5062262;28;20024;-60
2023/01/19 06:43:08;;;;;;;16.95;11.13;;;2.40;99.90;;;;;;5061415;28;20504;-59
2023/01/19 06:45:33;;;;;;;17.55;12.05;;;2.50;99.90;;;;;;5048165;28;20091;-60
2023/01/19 06:47:59;;;;;;;17.17;12.07;;;2.50;99.90;;;;;;5049940;28;20744;-62
2023/01/19 06:50:25;;;;;;;16.65;11.57;;;2.40;99.90;;;;;;5049518;28;20055;-62
2023/01/19 06:52:51;;;;;;;17.88;11.63;;;2.40;99.90;;;;;;5066722;28;20032;-59
2023/01/19 06:55:16;;;;;;;17.85;12.60;;;2.40;99.90;;;;;;5066439;28;20028;-59
2023/01/19 06:57:43;;;;;;;18.17;12.25;;;2.40;99.90;;;;;;5065853;28;20043;-61
2023/01/19 07:00:10;;;;;;;17.58;11.95;;;2.50;99.90;;;;;;5061216;28;21103;-59
2023/01/19 07:02:43;;;;;;;17.33;11.93;;;2.50;99.90;;;;;;5056262;28;20037;-59
2023/01/19 07:05:13;;;;;;;19.13;11.93;;;2.60;99.90;;;;;;5045222;28;20044;-60
2023/01/19 07:07:38;;;;;;;18.85;12.45;;;2.60;99.90;;;;;;5038355;28;20035;-59
2023/01/19 07:10:06;;;;;;;17.88;12.40;;;2.50;99.90;;;;;;5050658;28;20483;-60
2023/01/19 07:12:32;;;;;;;21.17;13.57;;;2.60;99.90;;;;;;5059078;28;20045;-58
2023/01/19 07:14:58;;;;;;;22.33;13.73;;;2.60;99.90;;;;;;5061031;28;20423;-60
2023/01/19 07:17:23;;;;;;;22.75;14.57;;;2.60;99.90;;;;;;5061186;28;20047;-58
2023/01/19 07:19:49;;;;;;;23.40;15.20;;;2.60;99.90;;;;;;5054093;28;20045;-60
2023/01/19 07:22:14;;;;;;;23.85;15.48;;;2.50;99.90;;;;;;5061704;28;20056;-62
2023/01/19 07:24:40;;;;;;;26.40;16.08;;;2.50;99.90;;;;;;5056737;28;20075;-60
2023/01/19 07:27:06;;;;;;;27.30;17.73;;;2.50;99.90;;;;;;5040286;28;20243;-61
2023/01/19 07:29:31;;;;;;;31.42;17.90;;;2.60;99.90;;;;;;5056673;28;20702;-63
2023/01/19 07:31:57;;;;;;;29.73;18.35;;;2.60;99.90;;;;;;5054419;28;20044;-63
2023/01/19 07:34:22;;;;;;;30.45;18.58;;;2.50;99.90;;;;;;5049008;28;21448;-62
2023/01/19 07:36:48;;;;;;;28.63;18.58;;;2.50;99.90;;;;;;5054042;28;20741;-62
2023/01/19 07:39:14;;;;;;;30.08;19.38;;;2.50;99.90;;;;;;5054179;28;20271;-61
2023/01/19 07:41:39;;;;;;;33.30;19.88;;;2.60;99.90;;;;;;5048371;28;20443;-60
2023/01/19 07:44:05;;;;;;;31.88;18.48;;;2.60;99.90;;;;;;5052660;28;20094;-63
2023/01/19 07:46:31;;;;;;;30.10;18.90;;;2.60;99.90;;;;;;5057722;28;20068;-61
2023/01/19 07:48:56;;;;;;;29.80;18.50;;;2.50;99.90;;;;;;5051857;28;20375;-62
2023/01/19 07:51:22;;;;;;;31.08;18.25;;;2.50;99.90;;;;;;5056166;28;20029;-63
2023/01/19 07:53:51;;;;;;;32.08;19.63;;;2.60;99.90;;;;;;5056979;28;20635;-60
2023/01/19 07:56:16;;;;;;;30.40;19.45;;;2.60;99.90;;;;;;5047311;28;20025;-62
2023/01/19 07:58:42;;;;;;;31.63;18.83;;;2.60;99.90;;;;;;5052428;28;20546;-60
2023/01/19 08:01:10;;;;;;;30.38;18.52;;;2.60;99.90;;;;;;5057118;28;20391;-62
2023/01/19 08:03:36;;;;;;;27.70;17.23;;;2.60;99.90;;;;;;5050182;28;20786;-61
2023/01/19 08:06:03;;;;;;;28.13;17.30;;;2.50;99.90;;;;;;5059146;28;20067;-58
2023/01/19 08:08:30;;;;;;;28.67;17.42;;;2.60;99.90;;;;;;5050020;28;20115;-62
2023/01/19 08:10:55;;;;;;;27.95;18.25;;;2.60;99.90;;;;;;5055402;28;20032;-62
2023/01/19 08:13:21;;;;;;;29.60;18.00;;;2.70;99.90;;;;;;5054500;28;20141;-62
2023/01/19 08:15:51;;;;;;;27.10;17.83;;;2.60;99.90;;;;;;5052508;28;20048;-62
2023/01/19 08:18:17;;;;;;;25.70;16.45;;;2.70;99.90;;;;;;5055016;28;20104;-60
2023/01/19 08:20:43;;;;;;;29.00;17.75;;;2.60;99.90;;;;;;5059983;28;20513;-60
2023/01/19 08:23:09;;;;;;;29.40;18.48;;;2.60;99.90;;;;;;5047858;28;20116;-62
2023/01/19 08:25:37;;;;;;;29.42;18.38;;;2.70;99.90;;;;;;5052706;28;20040;-60
2023/01/19 08:28:05;;;;;;;30.33;18.23;;;2.60;99.90;;;;;;5060160;28;20102;-62
2023/01/19 08:30:31;;;;;;;28.65;19.10;;;2.60;99.90;;;;;;5061566;28;20397;-61
2023/01/19 08:33:02;;;;;;;32.38;19.52;;;2.70;99.90;;;;;;5052877;28;20032;-62
2023/01/19 08:35:33;;;;;;;31.30;19.38;;;2.80;99.90;;;;;;5056694;28;20037;-61
2023/01/19 08:38:00;;;;;;;29.63;20.27;;;2.80;99.90;;;;;;5057743;28;20059;-60
2023/01/19 08:40:32;;;;;;;28.33;19.42;;;2.70;99.90;;;;;;5056402;28;20356;-60
2023/01/19 08:43:05;;;;;;;33.23;21.60;;;2.80;99.90;;;;;;5056472;28;20025;-60
2023/01/19 08:45:31;;;;;;;30.50;21.23;;;2.70;99.90;;;;;;5055844;28;20287;-63
2023/01/19 08:48:00;;;;;;;36.50;23.13;;;2.80;99.90;;;;;;5051610;28;20630;-61
2023/01/19 08:50:30;;;;;;;36.42;23.73;;;2.70;99.90;;;;;;5050746;28;20088;-61
2023/01/19 08:52:57;;;;;;;35.53;24.33;;;2.80;99.90;;;;;;5050876;28;20028;-63
2023/01/19 08:55:24;;;;;;;39.20;24.50;;;2.80;99.90;;;;;;5053692;28;20361;-63
2023/01/19 08:57:53;;;;;;;40.05;24.42;;;3.00;99.90;;;;;;5055548;28;20036;-60
2023/01/19 09:00:20;;;;;;;40.75;24.30;;;3.00;99.90;;;;;;5047280;28;20643;-60
2023/01/19 09:02:46;;;;;;;40.80;23.33;;;2.80;99.90;;;;;;5050934;28;20052;-60
2023/01/19 09:05:12;;;;;;;40.90;25.25;;;2.80;99.90;;;;;;5047564;28;20040;-61
2023/01/19 09:07:45;;;;;;;38.63;25.63;;;2.90;99.90;;;;;;5058369;28;20488;-62
2023/01/19 09:10:10;;;;;;;;;;;2.90;99.90;;;;;;5059638;28;20520;-61
2023/01/19 09:12:36;;;;;;;43.75;26.35;;;3.00;99.90;;;;;;5056537;28;19916;-61
2023/01/19 09:15:02;;;;;;;40.67;25.38;;;3.10;99.90;;;;;;5054308;28;20044;-62
2023/01/19 09:17:27;;;;;;;39.33;24.33;;;3.00;99.90;;;;;;5050905;28;20039;-62
2023/01/19 09:19:53;;;;;;;40.58;25.33;;;2.90;99.90;;;;;;5049811;28;20049;-63
2023/01/19 09:22:18;;;;;;;37.88;24.42;;;3.00;99.90;;;;;;5056299;28;20025;-63
2023/01/19 09:24:44;;;;;;;40.00;24.05;;;2.90;99.90;;;;;;5046583;28;20131;-60
2023/01/19 09:27:10;;;;;;;42.08;25.40;;;2.90;99.90;;;;;;5058937;28;20525;-62
2023/01/19 09:29:35;;;;;;;41.35;23.92;;;3.00;99.90;;;;;;5055146;28;20805;-61
2023/01/19 09:32:01;;;;;;;39.70;24.67;;;2.90;99.90;;;;;;5058520;28;20113;-61
2023/01/19 09:34:27;;;;;;;41.75;24.27;;;2.90;99.90;;;;;;5056711;28;20048;-60
2023/01/19 09:36:53;;;;;;;43.10;25.83;;;3.00;99.90;;;;;;5058259;28;20037;-61
2023/01/19 09:39:18;;;;;;;45.92;26.05;;;3.10;99.90;;;;;;5062142;28;20024;-62
2023/01/19 09:41:48;;;;;;;41.05;25.98;;;3.10;99.90;;;;;;5063488;28;20029;-60
2023/01/19 09:44:31;;;;;;;44.47;25.23;;;3.10;99.90;;;;;;5061905;28;20040;-63
2023/01/19 09:46:57;;;;;;;42.97;26.13;;;3.10;99.90;;;;;;5061616;28;20033;-61
2023/01/19 09:49:32;;;;;;;42.33;25.58;;;3.10;99.90;;;;;;5060814;28;20052;-62
2023/01/19 09:51:58;;;;;;;55.28;29.55;;;3.10;99.90;;;;;;5060302;28;20666;-59
2023/01/19 09:54:35;;;;;;;49.83;29.85;;;3.00;99.90;;;;;;5052971;28;20025;-61
2023/01/19 09:57:01;;;;;;;56.28;28.35;;;2.90;99.90;;;;;;5058285;28;20033;-62
2023/01/19 09:59:31;;;;;;;53.83;30.05;;;3.10;99.90;;;;;;5059140;28;20559;-60
2023/01/19 10:02:16;;;;;;;57.85;29.63;;;2.90;99.90;;;;;;5060867;28;20436;-62
2023/01/19 10:04:44;;;;;;;55.05;29.88;;;2.90;99.90;;;;;;5057447;28;20538;-61
2023/01/19 10:07:19;;;;;;;61.65;31.77;;;3.00;99.90;;;;;;5060870;28;20688;-63
2023/01/19 10:10:04;;;;;;;58.95;31.38;;;3.10;99.90;;;;;;5060736;28;20395;-62
2023/01/19 10:12:56;;;;;;;56.63;30.27;;;3.20;99.90;;;;;;5060068;28;20051;-60
2023/01/19 10:15:30;;;;;;;67.05;32.22;;;3.10;99.90;;;;;;5059008;28;20748;-60
2023/01/19 10:18:29;;;;;;;64.03;33.00;;;3.30;99.90;;;;;;5051354;28;20033;-63
2023/01/19 10:21:09;;;;;;;61.08;31.08;;;3.30;99.90;;;;;;5061801;28;20550;-61
2023/01/19 10:23:58;;;;;;;63.72;30.70;;;3.20;99.90;;;;;;5062963;28;20424;-60
2023/01/19 10:26:47;;;;;;;70.97;31.63;;;3.20;99.90;;;;;;5053652;28;20084;-61
2023/01/19 10:29:22;;;;;;;67.03;31.02;;;3.30;99.90;;;;;;5052934;28;20747;-60
2023/01/19 10:31:48;;;;;;;69.85;32.17;;;3.40;99.90;;;;;;5064631;28;20457;-60
2023/01/19 10:34:17;;;;;;;66.88;32.55;;;3.50;99.90;;;;;;5053866;28;20557;-61
2023/01/19 10:36:45;;;;;;;66.35;32.15;;;3.50;99.90;;;;;;5052333;28;20045;-61
2023/01/19 10:39:15;;;;;;;61.40;31.38;;;3.60;99.90;;;;;;5059422;28;20033;-60
2023/01/19 10:41:41;;;;;;;71.15;31.73;;;3.50;99.90;;;;;;5056820;28;20560;-61
2023/01/19 10:44:09;;;;;;;64.35;30.80;;;3.50;99.90;;;;;;5056946;28;20033;-60
2023/01/19 10:46:46;;;;;;;139.77;73.53;;;3.60;99.90;;;;;;5062511;28;20128;-58
2023/01/19 10:49:35;;;;;;;70.72;31.95;;;3.70;99.90;;;;;;5053889;28;20028;-59
2023/01/19 10:52:01;;;;;;;64.15;30.48;;;3.60;99.90;;;;;;5053992;28;20036;-61
2023/01/19 10:54:30;;;;;;;73.72;33.05;;;3.60;99.90;;;;;;5061179;28;20029;-62
2023/01/19 10:57:02;;;;;;;62.42;30.73;;;3.60;99.90;;;;;;5062276;28;20029;-61
2023/01/19 10:59:48;;;;;;;56.00;29.90;;;3.70;99.90;;;;;;5054439;28;20048;-61
2023/01/19 11:02:22;;;;;;;64.47;30.70;;;3.60;99.90;;;;;;5056005;28;20067;-61
2023/01/19 11:04:51;;;;;;;62.53;29.20;;;3.60;99.90;;;;;;5064956;28;20101;-60
2023/01/19 11:07:22;;;;;;;65.05;31.55;;;3.50;99.90;;;;;;5048135;28;20036;-60
2023/01/19 11:09:51;;;;;;;65.43;30.05;;;3.60;99.90;;;;;;5053232;28;20246;-61
2023/01/19 11:12:22;;;;;;;60.83;30.05;;;3.50;99.90;;;;;;5054511;28;20033;-60
2023/01/19 11:14:49;;;;;;;64.57;31.55;;;3.50;99.90;;;;;;5055683;28;20094;-59
2023/01/19 11:17:22;;;;;;;64.03;32.08;;;3.50;99.90;;;;;;5052978;28;20127;-61
2023/01/19 11:19:55;;;;;;;65.03;31.23;;;3.40;99.90;;;;;;5050854;28;20040;-61
2023/01/19 11:22:26;;;;;;;66.30;30.23;;;3.40;99.90;;;;;;5053456;28;20563;-62
2023/01/19 11:24:57;;;;;;;62.30;30.23;;;3.30;99.90;;;;;;5048964;28;20036;-59
2023/01/19 11:27:23;;;;;;;57.25;29.42;;;3.40;99.90;;;;;;5057586;28;20644;-58
2023/01/19 11:29:57;;;;;;;66.80;31.10;;;3.60;99.90;;;;;;5053949;28;20033;-62
2023/01/19 11:32:26;;;;;;;56.58;30.08;;;3.50;99.90;;;;;;5060772;28;20032;-62
2023/01/19 11:34:52;;;;;;;69.97;31.40;;;3.50;99.90;;;;;;5051128;28;20643;-61
2023/01/19 11:37:17;;;;;;;75.63;30.80;;;3.60;99.90;;;;;;5065391;28;20119;-59
2023/01/19 11:39:49;;;;;;;61.28;29.38;;;3.60;99.90;;;;;;5057252;28;20604;-60
2023/01/19 11:42:16;;;;;;;55.70;28.50;;;3.60;99.90;;;;;;5044848;28;20283;-60
2023/01/19 11:44:51;;;;;;;58.90;29.58;;;3.60;99.90;;;;;;5046292;28;20037;-62
2023/01/19 11:47:29;;;;;;;53.78;27.50;;;3.50;99.90;;;;;;5056507;28;20025;-59
2023/01/19 11:50:12;;;;;;;57.17;28.60;;;3.60;99.90;;;;;;5056368;28;20036;-61
2023/01/19 11:52:59;;;;;;;55.67;28.27;;;3.60;99.90;;;;;;5055422;28;20029;-60
2023/01/19 11:55:38;;;;;;;58.67;28.05;;;3.80;99.90;;;;;;5059402;28;20028;-58
2023/01/19 11:58:04;;;;;;;65.55;29.73;;;3.70;99.90;;;;;;5058473;28;20089;-61
2023/01/19 12:00:45;;;;;;;56.50;28.38;;;3.80;99.90;;;;;;5059230;28;20493;-60
2023/01/19 12:03:26;;;;;;;54.92;28.65;;;3.80;99.90;;;;;;5058523;28;20101;-59
2023/01/19 12:05:57;;;;;;;57.38;28.42;;;3.80;99.90;;;;;;5057539;28;20455;-58
2023/01/19 12:08:28;;;;;;;59.15;28.80;;;3.90;99.90;;;;;;5052871;28;20040;-58
2023/01/19 12:10:58;;;;;;;52.00;26.75;;;3.90;99.90;;;;;;5055568;28;20647;-58
2023/01/19 12:13:25;;;;;;;56.95;27.83;;;4.00;99.90;;;;;;5056404;28;20506;-59
2023/01/19 12:16:09;;;;;;;58.70;28.85;;;4.20;99.90;;;;;;5054202;28;20048;-59
2023/01/19 12:18:45;;;;;;;;;;;4.20;99.90;;;;;;5058664;28;20833;-58
2023/01/19 12:21:11;;;;;;;54.08;26.55;;;4.20;99.90;;;;;;5053786;28;19916;-62
2023/01/19 12:23:45;;;;;;;55.28;25.95;;;4.10;99.90;;;;;;5051198;28;20579;-59
2023/01/19 12:26:23;;;;;;;53.05;26.52;;;4.10;99.90;;;;;;5052851;28;20041;-60
2023/01/19 12:28:51;;;;;;;53.67;26.10;;;4.00;99.90;;;;;;5060561;28;20433;-58
2023/01/19 12:31:19;;;;;;;55.50;24.48;;;4.00;99.90;;;;;;5051508;28;20144;-57
2023/01/19 12:33:45;;;;;;;44.60;24.33;;;3.90;99.90;;;;;;5055855;28;20094;-61
2023/01/19 12:36:29;;;;;;;45.13;23.30;;;3.90;99.90;;;;;;5059485;28;20083;-58
2023/01/19 12:39:00;;;;;;;48.15;24.55;;;4.00;99.90;;;;;;5060672;28;20028;-59
2023/01/19 12:41:36;;;;;;;45.08;22.67;;;4.00;99.90;;;;;;5054977;28;20154;-62
2023/01/19 12:44:15;;;;;;;44.22;23.38;;;3.90;99.90;;;;;;5059537;28;20028;-61
2023/01/19 12:46:40;;;;;;;44.78;23.55;;;4.00;99.90;;;;;;5058668;28;20060;-60
2023/01/19 12:49:30;;;;;;;46.22;22.88;;;4.10;99.90;;;;;;5054238;28;20638;-59
2023/01/19 12:52:29;;;;;;;42.47;21.98;;;4.10;99.90;;;;;;5049764;28;20035;-60
2023/01/19 12:55:13;;;;;;;45.85;21.27;;;4.10;99.90;;;;;;5057819;28;20032;-61
2023/01/19 12:57:47;;;;;;;41.15;21.73;;;4.30;99.90;;;;;;5055324;28;20047;-58
2023/01/19 13:00:22;;;;;;;44.35;21.33;;;4.20;99.90;;;;;;5046273;28;20041;-60